KNH weather

Kinmen Airport
Shang-I, Kinmen County, Taiwan

Public forecast

Using degrees Celsius for public forecast. Weather courtesy of forecast.io.

METAR (pilot weather report)

Closest report is Xiamen Gaoqi International Airport, 14.4 nm (26.7 km) WNW. Retrieved 2019/05/21 02:00 UTC (10 minutes ago):

ZSAM 210200Z 04003MPS 010V070 9999 OVC050 25/14 Q1013 NOSIG

TAF (pilot weather forecast)

Forecast is more than 12 hours old.

Retrieved 2014/06/03 06:15 UTC (5 years ago):

TAF TAF RCBS 030500Z 0306/0324 08010KT 6000 FEW015 BKN032 TEMPO 0306/0312 18005KT 3500 SHRA FEW010 FEW012CB BKN016 TEMPO 0318/0324 1500 BR FEW005 BKN012